Time;durP1;ratioP1;P1;durP2;ratioP2;P2;SDS_P1;SDS_P2;PMS_P1;PMS_P2;Temp;Humidity;BMP_temperature;BMP_pressure;BME280_temperature;BME280_humidity;BME280_pressure;Samples;Min_cycle;Max_cycle;Signal;HPM_P1;HPM_P2
2022/06/04 00:01:53;;;;;;;1.70;1.60;;;20.40;56.90;;;;;;5024791;28;43478;-63
2022/06/04 00:04:20;;;;;;;1.38;1.27;;;20.40;56.90;;;;;;5014370;28;43471;-62
2022/06/04 00:06:48;;;;;;;2.85;1.48;;;20.40;56.90;;;;;;5013715;28;43814;-63
2022/06/04 00:09:20;;;;;;;1.52;1.42;;;20.40;56.90;;;;;;5054831;28;43473;-63
2022/06/04 00:17:21;;;;;;;1.60;1.50;;;20.40;56.90;;;;;;5016227;28;44631;-63
2022/06/04 00:19:49;;;;;;;1.58;1.48;;;20.30;56.90;;;;;;5023460;28;43654;-62
2022/06/04 00:22:16;;;;;;;1.58;1.40;;;20.30;56.90;;;;;;5025896;28;43493;-62
2022/06/04 00:24:45;;;;;;;1.92;1.60;;;20.40;56.90;;;;;;5012443;28;43565;-63
2022/06/04 00:27:19;;;;;;;1.70;1.60;;;20.30;56.90;;;;;;5018635;28;44067;-63
2022/06/04 00:29:46;;;;;;;1.70;1.52;;;20.30;56.90;;;;;;5036330;28;43995;-63
2022/06/04 00:32:14;;;;;;;1.40;1.30;;;20.30;56.90;;;;;;5013809;28;43517;-62
2022/06/04 00:34:42;;;;;;;1.63;1.48;;;20.30;56.90;;;;;;5013292;28;43466;-63
2022/06/04 00:37:09;;;;;;;1.50;1.40;;;20.30;56.90;;;;;;5021469;28;44963;-63
2022/06/04 00:39:37;;;;;;;1.70;1.58;;;20.30;56.90;;;;;;5025030;28;43542;-62
2022/06/04 00:42:13;;;;;;;1.50;1.40;;;20.30;56.90;;;;;;5012907;28;43591;-62
2022/06/04 00:45:28;;;;;;;1.58;1.48;;;20.30;56.90;;;;;;5014686;28;43544;-63
2022/06/04 00:47:58;;;;;;;2.70;1.65;;;20.30;56.90;;;;;;5021913;28;44104;-62
2022/06/04 00:50:29;;;;;;;1.90;1.60;;;20.30;57.00;;;;;;5008780;28;43397;-62
2022/06/04 00:52:59;;;;;;;1.60;1.50;;;20.30;57.00;;;;;;5014470;28;43483;-62
2022/06/04 00:55:34;;;;;;;1.75;1.65;;;20.30;57.00;;;;;;5020950;28;43499;-62
2022/06/04 00:58:13;;;;;;;1.67;1.58;;;20.20;56.90;;;;;;5020469;28;44073;-62
2022/06/04 01:00:56;;;;;;;1.55;1.48;;;20.30;57.00;;;;;;5009373;28;43680;-62
2022/06/04 01:03:44;;;;;;;1.52;1.42;;;20.20;56.90;;;;;;5014983;28;43400;-63
2022/06/04 01:06:23;;;;;;;1.88;1.77;;;20.20;56.90;;;;;;5022930;28;43602;-62
2022/06/04 01:09:13;;;;;;;1.73;1.60;;;20.20;56.90;;;;;;5017558;28;44717;-62
2022/06/04 01:12:09;;;;;;;1.73;1.63;;;20.20;56.90;;;;;;5013521;28;43526;-63
2022/06/04 01:14:54;;;;;;;1.73;1.55;;;20.20;56.90;;;;;;5021835;28;43453;-62
2022/06/04 01:17:39;;;;;;;1.90;1.60;;;20.20;56.90;;;;;;5014357;28;43538;-62
2022/06/04 01:20:22;;;;;;;1.75;1.65;;;20.20;56.90;;;;;;5010995;28;44741;-62
2022/06/04 01:23:02;;;;;;;1.90;1.70;;;20.20;57.00;;;;;;4996139;28;44165;-63
2022/06/04 01:25:39;;;;;;;1.80;1.70;;;20.20;57.00;;;;;;5019811;28;43495;-62
2022/06/04 01:28:15;;;;;;;1.75;1.63;;;20.10;56.90;;;;;;5008873;28;43495;-63
2022/06/04 01:30:50;;;;;;;1.70;1.52;;;20.10;57.00;;;;;;5017329;28;44708;-63
2022/06/04 01:33:25;;;;;;;1.77;1.67;;;20.10;56.90;;;;;;5018384;28;43723;-62
2022/06/04 01:36:06;;;;;;;2.10;1.83;;;20.10;56.90;;;;;;5017587;28;43523;-62
2022/06/04 01:38:55;;;;;;;1.40;1.30;;;20.10;56.90;;;;;;5012905;28;44104;-62
2022/06/04 01:41:35;;;;;;;1.48;1.38;;;20.10;56.90;;;;;;5014595;28;43584;-62
2022/06/04 01:44:23;;;;;;;1.42;1.33;;;20.10;56.90;;;;;;5014538;28;43444;-63
2022/06/04 01:46:55;;;;;;;1.80;1.70;;;20.10;57.00;;;;;;5015522;28;44378;-62
2022/06/04 01:49:33;;;;;;;1.60;1.50;;;20.10;57.00;;;;;;5012963;28;43466;-63
2022/06/04 01:52:12;;;;;;;1.70;1.60;;;20.10;56.90;;;;;;5013056;28;44041;-62
2022/06/04 01:54:49;;;;;;;1.85;1.75;;;20.10;56.90;;;;;;5010791;28;43600;-62
2022/06/04 01:57:26;;;;;;;1.60;1.50;;;20.10;56.90;;;;;;5011004;28;43546;-62
2022/06/04 02:00:00;;;;;;;1.50;1.40;;;20.10;56.90;;;;;;5019526;28;43503;-62
2022/06/04 02:02:39;;;;;;;1.63;1.52;;;20.00;56.90;;;;;;5022952;28;43776;-62
2022/06/04 02:05:12;;;;;;;1.95;1.75;;;20.00;56.90;;;;;;5008723;28;43443;-63
2022/06/04 02:07:45;;;;;;;1.80;1.63;;;20.00;56.90;;;;;;5015271;28;43415;-62
2022/06/04 02:10:32;;;;;;;1.90;1.77;;;20.00;56.90;;;;;;5024173;28;43586;-63
2022/06/04 02:13:04;;;;;;;1.67;1.50;;;20.00;56.90;;;;;;5006716;28;45025;-63
2022/06/04 02:15:43;;;;;;;1.80;1.70;;;20.00;56.90;;;;;;5011507;28;43503;-63
2022/06/04 02:18:11;;;;;;;2.03;1.75;;;20.00;56.90;;;;;;5019368;28;43399;-62
2022/06/04 02:20:39;;;;;;;1.58;1.48;;;20.00;57.00;;;;;;5018553;28;43507;-63
2022/06/04 02:23:07;;;;;;;1.90;1.80;;;20.00;57.00;;;;;;5007713;28;44022;-62
2022/06/04 02:25:35;;;;;;;1.65;1.55;;;20.00;56.90;;;;;;5014384;28;43878;-62
2022/06/04 02:28:06;;;;;;;1.65;1.33;;;20.00;57.00;;;;;;5019788;28;43420;-62
2022/06/04 02:30:47;;;;;;;1.50;1.40;;;19.90;56.90;;;;;;5018478;28;43494;-62
2022/06/04 02:33:23;;;;;;;1.55;1.45;;;20.00;56.90;;;;;;5008205;28;43814;-62
2022/06/04 02:36:07;;;;;;;1.35;1.33;;;19.90;56.90;;;;;;5016278;28;43514;-62
2022/06/04 02:39:12;;;;;;;1.60;1.50;;;19.90;57.20;;;;;;5020502;28;43558;-62
2022/06/04 02:42:06;;;;;;;1.55;1.45;;;19.90;56.90;;;;;;5009414;28;43564;-62
2022/06/04 02:44:49;;;;;;;1.90;1.80;;;19.90;56.90;;;;;;5004896;28;43824;-63
2022/06/04 02:47:24;;;;;;;1.40;1.30;;;19.90;56.90;;;;;;5015956;28;43446;-62
2022/06/04 02:50:13;;;;;;;1.60;1.50;;;19.90;56.90;;;;;;5022150;28;43383;-62
2022/06/04 02:52:42;;;;;;;1.60;1.50;;;19.90;57.00;;;;;;5009118;28;43539;-62
2022/06/04 02:55:26;;;;;;;1.30;1.30;;;19.90;56.90;;;;;;5033593;28;43560;-62
2022/06/04 02:57:58;;;;;;;1.52;1.38;;;19.90;56.90;;;;;;5021020;28;43441;-62
2022/06/04 03:00:28;;;;;;;1.60;1.50;;;19.90;56.90;;;;;;5016623;28;43530;-63
2022/06/04 03:02:56;;;;;;;1.30;1.30;;;19.90;56.90;;;;;;5013902;28;43451;-63
2022/06/04 03:05:26;;;;;;;1.52;1.42;;;19.90;56.90;;;;;;5016153;28;45755;-62
2022/06/04 03:07:58;;;;;;;1.40;1.30;;;19.90;56.90;;;;;;5016535;28;43973;-63
2022/06/04 03:10:33;;;;;;;1.50;1.40;;;19.90;56.90;;;;;;5026979;28;43431;-62
2022/06/04 03:13:01;;;;;;;1.60;1.50;;;19.90;56.90;;;;;;5011261;28;43518;-63
2022/06/04 03:15:28;;;;;;;1.40;1.40;;;19.90;56.90;;;;;;5017709;28;43787;-63
2022/06/04 03:17:56;;;;;;;1.50;1.40;;;19.80;56.90;;;;;;5018299;28;43736;-62
2022/06/04 03:20:27;;;;;;;1.70;1.60;;;19.80;56.90;;;;;;5005716;28;43654;-61
2022/06/04 03:22:55;;;;;;;1.30;1.30;;;19.90;57.00;;;;;;5017080;28;43434;-62
2022/06/04 03:25:22;;;;;;;1.65;1.55;;;19.80;57.00;;;;;;5017900;28;44407;-61
2022/06/04 03:27:53;;;;;;;1.50;1.40;;;19.80;56.90;;;;;;5014145;28;43505;-62
2022/06/04 03:30:26;;;;;;;1.58;1.48;;;19.80;56.90;;;;;;5040933;28;43476;-63
2022/06/04 03:32:54;;;;;;;1.30;1.30;;;19.80;57.00;;;;;;5017599;28;43438;-63
2022/06/04 03:35:22;;;;;;;1.60;1.50;;;19.80;57.00;;;;;;5016793;28;43815;-62
2022/06/04 03:37:49;;;;;;;1.63;1.52;;;19.80;57.60;;;;;;5006300;28;43503;-63
2022/06/04 03:40:18;;;;;;;1.60;1.50;;;19.80;57.00;;;;;;5013127;28;43491;-63
2022/06/04 03:42:45;;;;;;;1.65;1.55;;;19.80;57.00;;;;;;5028894;28;43436;-63
2022/06/04 03:45:14;;;;;;;1.65;1.55;;;19.80;57.00;;;;;;5018087;28;43794;-62
2022/06/04 03:47:42;;;;;;;1.60;1.50;;;19.80;57.00;;;;;;5010541;28;43437;-62
2022/06/04 03:50:14;;;;;;;1.80;1.70;;;19.70;56.90;;;;;;5015112;28;43450;-62
2022/06/04 03:52:41;;;;;;;1.60;1.50;;;19.80;56.90;;;;;;5018029;28;43458;-62
2022/06/04 03:55:10;;;;;;;1.73;1.63;;;19.70;56.90;;;;;;5018214;28;43790;-63
2022/06/04 03:57:41;;;;;;;1.42;1.33;;;19.80;57.00;;;;;;5008345;28;43800;-62
2022/06/04 04:00:27;;;;;;;1.70;1.60;;;19.80;57.00;;;;;;5017800;28;43468;-63
2022/06/04 04:02:59;;;;;;;1.70;1.60;;;19.70;56.90;;;;;;5019513;28;43531;-63
2022/06/04 04:05:35;;;;;;;1.70;1.60;;;19.70;56.90;;;;;;5002680;28;44899;-63
2022/06/04 04:08:05;;;;;;;1.42;1.33;;;19.70;56.90;;;;;;5016026;28;43538;-63
2022/06/04 04:10:33;;;;;;;1.80;1.70;;;19.70;57.00;;;;;;5020555;28;43518;-63
2022/06/04 04:13:01;;;;;;;1.48;1.45;;;19.70;57.00;;;;;;5017500;28;43538;-62
2022/06/04 04:15:29;;;;;;;1.75;1.65;;;19.70;57.00;;;;;;5008275;28;44050;-62
2022/06/04 04:17:57;;;;;;;1.63;1.52;;;19.70;57.00;;;;;;5023934;28;45185;-62
2022/06/04 04:20:28;;;;;;;1.60;1.50;;;19.70;57.00;;;;;;5021705;28;43605;-62
2022/06/04 04:22:56;;;;;;;;;;;19.70;57.00;;;;;;5020848;28;43431;-63
2022/06/04 04:25:26;;;;;;;1.23;1.23;;;19.70;57.00;;;;;;5013830;28;43986;-62
2022/06/04 04:27:53;;;;;;;1.60;1.50;;;19.70;57.10;;;;;;5021064;28;43504;-62
2022/06/04 04:30:24;;;;;;;2.53;1.70;;;19.60;57.00;;;;;;5034682;28;43446;-63
2022/06/04 04:32:53;;;;;;;1.80;1.70;;;19.60;57.00;;;;;;5009433;28;43996;-62
2022/06/04 04:35:24;;;;;;;1.50;1.50;;;19.60;57.70;;;;;;5016160;28;45045;-62
2022/06/04 04:37:52;;;;;;;;;;;19.60;57.00;;;;;;5021366;28;43494;-63
2022/06/04 04:40:23;;;;;;;1.67;1.58;;;19.60;57.00;;;;;;5020488;28;43462;-63
2022/06/04 04:42:51;;;;;;;1.52;1.50;;;19.60;57.10;;;;;;5012099;28;43490;-62
2022/06/04 04:45:23;;;;;;;1.60;1.50;;;19.60;57.20;;;;;;5018338;28;44743;-62
2022/06/04 04:47:51;;;;;;;1.70;1.60;;;19.60;57.20;;;;;;5023345;28;43606;-62
2022/06/04 04:50:28;;;;;;;1.55;1.50;;;19.50;57.20;;;;;;5020763;28;43451;-62
2022/06/04 04:52:57;;;;;;;1.90;1.80;;;19.60;57.20;;;;;;5013311;28;43487;-63
2022/06/04 04:55:30;;;;;;;1.45;1.45;;;19.60;57.20;;;;;;5020483;28;43952;-62
2022/06/04 04:57:58;;;;;;;1.50;1.40;;;19.60;57.20;;;;;;5022360;28;43700;-62
2022/06/04 05:00:26;;;;;;;1.77;1.50;;;19.60;57.20;;;;;;5017781;28;43439;-62
2022/06/04 05:02:55;;;;;;;1.67;1.58;;;19.60;57.10;;;;;;5014315;28;43509;-62
2022/06/04 05:05:23;;;;;;;1.50;1.40;;;19.60;57.20;;;;;;5020594;28;45165;-62
2022/06/04 05:07:50;;;;;;;1.48;1.38;;;19.60;57.20;;;;;;5054995;28;44101;-62
2022/06/04 05:10:18;;;;;;;1.60;1.50;;;19.60;57.20;;;;;;5018947;28;43546;-62
2022/06/04 05:12:49;;;;;;;1.63;1.60;;;19.60;57.10;;;;;;5023758;28;43476;-62
2022/06/04 05:15:17;;;;;;;1.73;1.58;;;19.50;57.10;;;;;;5021060;28;44720;-63
2022/06/04 05:17:44;;;;;;;1.60;1.50;;;19.50;57.10;;;;;;5020446;28;43733;-62
2022/06/04 05:20:12;;;;;;;1.80;1.70;;;19.50;57.20;;;;;;5010278;28;44052;-62
2022/06/04 05:22:39;;;;;;;1.85;1.75;;;19.50;57.20;;;;;;5019284;28;43531;-62
2022/06/04 05:25:08;;;;;;;1.70;1.60;;;19.50;57.20;;;;;;5021793;28;44747;-62
2022/06/04 05:27:35;;;;;;;1.70;1.60;;;19.50;57.30;;;;;;5008079;28;43671;-62
2022/06/04 05:30:04;;;;;;;1.90;1.80;;;19.50;57.40;;;;;;5010116;28;44059;-62
2022/06/04 05:32:32;;;;;;;1.98;1.60;;;19.50;57.40;;;;;;5019388;28;44091;-62
2022/06/04 05:35:00;;;;;;;1.77;1.67;;;19.50;57.40;;;;;;5021612;28;44277;-63
2022/06/04 05:37:27;;;;;;;1.67;1.60;;;19.50;57.40;;;;;;5008117;28;43683;-62
2022/06/04 05:40:04;;;;;;;1.65;1.55;;;19.50;57.40;;;;;;5011870;28;43443;-62
2022/06/04 05:42:32;;;;;;;2.85;1.98;;;19.50;57.50;;;;;;5028706;28;43620;-62
2022/06/04 05:45:02;;;;;;;1.58;1.48;;;19.50;57.40;;;;;;5021815;28;44135;-62
2022/06/04 05:47:30;;;;;;;1.83;1.73;;;19.50;57.50;;;;;;5011945;28;43973;-62
2022/06/04 05:49:57;;;;;;;1.90;1.80;;;19.50;57.50;;;;;;5015572;28;43533;-63
2022/06/04 05:52:25;;;;;;;1.80;1.70;;;19.50;57.50;;;;;;5020759;28;43450;-62
2022/06/04 05:54:52;;;;;;;1.60;1.50;;;19.50;57.50;;;;;;5021448;28;43798;-62
2022/06/04 05:57:20;;;;;;;1.77;1.67;;;19.50;57.50;;;;;;5041518;28;43567;-62
2022/06/04 05:59:49;;;;;;;1.80;1.70;;;19.50;57.50;;;;;;5017787;28;43503;-62
2022/06/04 06:02:16;;;;;;;1.70;1.60;;;19.50;57.50;;;;;;5022162;28;43489;-63
2022/06/04 06:04:44;;;;;;;2.08;1.75;;;19.50;57.60;;;;;;5008931;28;45028;-62
2022/06/04 06:07:11;;;;;;;1.70;1.60;;;19.50;57.50;;;;;;5010613;28;44052;-62
2022/06/04 06:09:39;;;;;;;1.90;1.80;;;19.50;57.50;;;;;;5023277;28;43439;-62
2022/06/04 06:12:07;;;;;;;1.90;1.80;;;19.50;57.50;;;;;;5022347;28;43510;-61
2022/06/04 06:14:34;;;;;;;1.90;1.80;;;19.50;57.50;;;;;;5009100;28;44682;-62
2022/06/04 06:17:02;;;;;;;1.92;1.83;;;19.50;57.50;;;;;;5010600;28;44089;-62
2022/06/04 06:19:30;;;;;;;1.85;1.75;;;19.50;58.10;;;;;;5012046;28;43489;-62
2022/06/04 06:21:58;;;;;;;1.80;1.70;;;19.50;57.40;;;;;;5022851;28;43466;-62
2022/06/04 06:24:25;;;;;;;2.00;1.80;;;19.50;57.50;;;;;;5009974;28;45270;-62
2022/06/04 06:26:57;;;;;;;2.03;1.92;;;19.50;57.50;;;;;;5011667;28;43496;-62
2022/06/04 06:29:28;;;;;;;1.75;1.65;;;19.50;57.40;;;;;;5021229;28;44054;-62
2022/06/04 06:31:58;;;;;;;1.88;1.77;;;19.40;57.40;;;;;;5023868;28;43506;-62
2022/06/04 06:34:26;;;;;;;1.90;1.80;;;19.50;57.50;;;;;;5009560;28;44719;-62
2022/06/04 06:36:55;;;;;;;1.80;1.70;;;19.40;57.40;;;;;;5015164;28;43801;-62
2022/06/04 06:39:23;;;;;;;1.70;1.60;;;19.50;57.50;;;;;;5022837;28;43453;-63
2022/06/04 06:41:50;;;;;;;2.35;2.20;;;19.40;57.40;;;;;;5023255;28;43642;-62
2022/06/04 06:44:18;;;;;;;1.67;1.58;;;19.50;57.50;;;;;;5010278;28;44091;-62
2022/06/04 06:46:53;;;;;;;1.90;1.80;;;19.50;57.50;;;;;;5020917;28;43967;-62
2022/06/04 06:49:28;;;;;;;1.60;1.50;;;19.50;57.40;;;;;;5022425;28;43427;-62
2022/06/04 06:51:58;;;;;;;2.00;1.90;;;19.50;57.40;;;;;;5009012;28;43521;-62
2022/06/04 06:54:33;;;;;;;1.80;1.70;;;19.50;57.30;;;;;;5010764;28;45020;-61
2022/06/04 06:57:04;;;;;;;1.90;1.80;;;19.50;57.30;;;;;;5019818;28;43538;-62
2022/06/04 06:59:31;;;;;;;1.85;1.75;;;19.50;57.30;;;;;;5023251;28;43529;-61
2022/06/04 07:01:59;;;;;;;2.17;1.98;;;19.50;57.30;;;;;;5009266;28;43445;-62
2022/06/04 07:04:28;;;;;;;1.95;1.77;;;19.50;57.40;;;;;;5016022;28;44692;-62
2022/06/04 07:07:01;;;;;;;1.70;1.60;;;19.40;57.30;;;;;;5021395;28;43473;-62
2022/06/04 07:09:33;;;;;;;2.00;1.90;;;19.50;57.40;;;;;;5013932;28;43468;-62
2022/06/04 07:12:01;;;;;;;1.90;1.80;;;19.50;57.40;;;;;;5010582;28;43587;-62
2022/06/04 07:14:29;;;;;;;1.80;1.70;;;19.50;57.40;;;;;;5018880;28;44705;-63
2022/06/04 07:16:58;;;;;;;1.90;1.80;;;19.50;57.40;;;;;;5021968;28;43678;-62
2022/06/04 07:19:26;;;;;;;1.90;1.80;;;19.50;57.40;;;;;;5009652;28;43456;-62
2022/06/04 07:21:55;;;;;;;1.90;1.80;;;19.50;57.50;;;;;;5043308;28;43550;-62
2022/06/04 07:24:23;;;;;;;2.42;1.83;;;19.50;57.40;;;;;;5020424;28;44084;-62
2022/06/04 07:26:51;;;;;;;2.00;1.90;;;19.50;57.40;;;;;;5022718;28;43505;-62
2022/06/04 07:29:19;;;;;;;1.95;1.85;;;19.50;57.60;;;;;;5011145;28;43497;-62
2022/06/04 07:31:47;;;;;;;2.90;2.20;;;19.50;57.50;;;;;;5017563;28;43491;-62
2022/06/04 07:34:15;;;;;;;1.75;1.65;;;19.50;57.40;;;;;;5021094;28;44075;-62
2022/06/04 07:36:50;;;;;;;1.95;1.85;;;19.50;57.30;;;;;;5010995;28;43685;-62
2022/06/04 07:39:18;;;;;;;1.95;1.80;;;19.50;57.40;;;;;;5010174;28;43435;-62
2022/06/04 07:41:52;;;;;;;2.00;1.90;;;19.50;57.30;;;;;;5021403;28;43478;-62
2022/06/04 07:44:22;;;;;;;2.00;1.85;;;19.50;57.30;;;;;;5028324;28;44795;-62
2022/06/04 07:46:51;;;;;;;2.20;2.00;;;19.60;57.40;;;;;;5011424;28;43466;-62
2022/06/04 07:49:20;;;;;;;1.92;1.83;;;19.60;57.30;;;;;;5011123;28;43480;-61
2022/06/04 07:51:48;;;;;;;1.80;1.70;;;19.60;57.30;;;;;;5020180;28;43532;-62
2022/06/04 07:54:18;;;;;;;2.05;1.95;;;19.60;57.10;;;;;;5025882;28;44043;-62
2022/06/04 07:56:46;;;;;;;1.83;1.73;;;19.60;57.20;;;;;;5013910;28;43368;-63
2022/06/04 07:59:16;;;;;;;2.30;2.10;;;19.60;57.20;;;;;;5015191;28;43525;-62
2022/06/04 08:01:45;;;;;;;1.80;1.70;;;19.60;57.10;;;;;;5023879;28;43621;-62
2022/06/04 08:04:13;;;;;;;2.20;2.10;;;19.60;57.20;;;;;;5023433;28;44932;-62
2022/06/04 08:06:41;;;;;;;2.08;1.88;;;19.60;57.10;;;;;;5022942;28;43431;-62
2022/06/04 08:09:09;;;;;;;2.00;1.80;;;19.60;57.10;;;;;;5021140;28;43441;-62
2022/06/04 08:11:37;;;;;;;1.98;1.88;;;19.60;57.80;;;;;;5024294;28;43472;-62
2022/06/04 08:14:24;;;;;;;2.28;2.17;;;19.60;57.10;;;;;;5013828;28;43750;-62
2022/06/04 08:16:54;;;;;;;2.10;2.00;;;19.60;57.10;;;;;;5019976;28;43689;-62
2022/06/04 08:19:25;;;;;;;1.95;1.85;;;19.70;57.20;;;;;;5021622;28;43510;-62
2022/06/04 08:21:53;;;;;;;1.77;1.67;;;19.60;57.20;;;;;;5024835;28;43549;-62
2022/06/04 08:24:21;;;;;;;2.00;1.90;;;19.70;57.20;;;;;;5012042;28;43789;-62
2022/06/04 08:26:53;;;;;;;2.00;1.77;;;19.70;57.10;;;;;;5016318;28;43988;-62
2022/06/04 08:29:21;;;;;;;2.90;1.80;;;19.70;57.00;;;;;;5022804;28;43501;-62
2022/06/04 08:31:49;;;;;;;1.92;1.77;;;19.70;57.00;;;;;;5025856;28;43514;-62
2022/06/04 08:34:16;;;;;;;2.03;1.90;;;19.70;57.00;;;;;;5010252;28;45161;-62
2022/06/04 08:36:44;;;;;;;1.73;1.70;;;19.70;57.00;;;;;;5017958;28;44235;-63
2022/06/04 08:39:12;;;;;;;2.17;2.03;;;19.70;56.90;;;;;;5022377;28;43454;-63
2022/06/04 08:42:10;;;;;;;2.10;2.00;;;19.70;56.90;;;;;;5023909;28;43464;-62
2022/06/04 08:44:47;;;;;;;2.00;1.90;;;19.80;56.80;;;;;;5012062;28;44047;-62
2022/06/04 08:47:16;;;;;;;1.90;1.80;;;19.80;57.00;;;;;;5023769;28;43546;-62
2022/06/04 08:49:58;;;;;;;2.00;1.90;;;19.80;56.90;;;;;;5016887;28;43496;-62
2022/06/04 08:52:33;;;;;;;2.10;2.00;;;19.80;56.90;;;;;;5024330;28;43502;-62
2022/06/04 08:58:09;;;;;;;1.80;1.70;;;19.80;56.80;;;;;;5015063;28;43910;-62
2022/06/04 09:00:52;;;;;;;1.92;1.83;;;19.90;56.70;;;;;;5013027;28;43537;-63
2022/06/04 09:03:36;;;;;;;1.90;1.80;;;19.90;56.80;;;;;;5011936;28;43458;-62
2022/06/04 09:06:11;;;;;;;2.03;1.92;;;19.90;57.10;;;;;;5011199;28;43961;-62
2022/06/04 09:08:49;;;;;;;2.30;1.90;;;19.90;57.00;;;;;;5021322;28;43438;-62
2022/06/04 09:12:02;;;;;;;2.20;2.00;;;19.90;57.00;;;;;;5019374;28;43580;-62
2022/06/04 09:14:36;;;;;;;1.90;1.80;;;19.90;56.90;;;;;;5016191;28;43525;-62
2022/06/04 09:17:15;;;;;;;1.85;1.75;;;19.90;56.90;;;;;;5018876;28;43861;-62
2022/06/04 09:19:48;;;;;;;2.03;1.83;;;19.90;56.80;;;;;;5022139;28;43467;-62
2022/06/04 09:22:21;;;;;;;1.85;1.75;;;19.90;56.80;;;;;;5015710;28;43398;-62
2022/06/04 09:24:49;;;;;;;2.08;1.95;;;19.90;57.00;;;;;;5015324;28;43483;-62
2022/06/04 09:27:32;;;;;;;2.22;1.90;;;20.00;57.10;;;;;;5021869;28;44910;-62
2022/06/04 09:30:05;;;;;;;2.10;1.90;;;20.00;57.30;;;;;;5047167;28;46587;-62
2022/06/04 09:33:19;;;;;;;2.10;2.00;;;20.00;57.20;;;;;;5014143;28;43510;-62
2022/06/04 09:35:53;;;;;;;2.35;1.90;;;20.10;57.00;;;;;;5017764;28;43469;-62
2022/06/04 09:38:31;;;;;;;2.17;1.70;;;20.10;57.00;;;;;;5022349;28;45058;-62
2022/06/04 09:41:00;;;;;;;3.25;1.77;;;20.10;57.00;;;;;;5011096;28;43391;-62
2022/06/04 09:43:28;;;;;;;2.10;2.00;;;20.10;57.00;;;;;;5019395;28;43513;-62
2022/06/04 09:46:08;;;;;;;2.10;1.90;;;20.10;57.00;;;;;;5011231;28;43468;-62
2022/06/04 09:48:41;;;;;;;1.90;1.80;;;20.10;57.00;;;;;;5022323;28;43798;-62
2022/06/04 09:51:21;;;;;;;2.00;1.90;;;20.10;57.00;;;;;;5016436;28;43526;-62
2022/06/04 09:53:54;;;;;;;4.63;1.83;;;20.10;57.00;;;;;;5020174;28;43483;-62
2022/06/04 09:56:34;;;;;;;2.80;2.10;;;20.10;57.00;;;;;;5023353;28;43622;-62
2022/06/04 09:59:28;;;;;;;2.10;2.00;;;20.20;57.00;;;;;;5009099;28;44085;-62
2022/06/04 10:02:02;;;;;;;1.90;1.75;;;20.10;57.00;;;;;;5011361;28;43554;-62
2022/06/04 10:04:44;;;;;;;1.90;1.80;;;20.20;56.90;;;;;;5023105;28;43451;-62
2022/06/04 10:07:16;;;;;;;1.77;1.67;;;20.20;56.90;;;;;;5017447;28;43540;-62
2022/06/04 10:09:55;;;;;;;2.20;2.00;;;20.20;57.00;;;;;;5019555;28;44674;-62
2022/06/04 10:15:48;;;;;;;1.92;1.70;;;20.20;57.00;;;;;;5005189;28;43502;-62
2022/06/04 10:18:18;;;;;;;1.98;1.80;;;20.20;56.90;;;;;;5011132;28;43538;-62
2022/06/04 10:20:54;;;;;;;2.57;2.00;;;20.20;56.90;;;;;;5010622;28;44867;-62
2022/06/04 10:23:24;;;;;;;2.13;1.80;;;20.20;56.90;;;;;;5013407;28;43676;-62
2022/06/04 10:26:13;;;;;;;1.90;1.80;;;20.20;56.90;;;;;;5023523;28;43545;-61
2022/06/04 10:29:03;;;;;;;1.95;1.83;;;20.30;57.00;;;;;;5009209;28;43476;-62
2022/06/04 10:31:33;;;;;;;2.42;1.92;;;20.20;56.90;;;;;;5011985;28;44057;-61
2022/06/04 10:34:21;;;;;;;1.92;1.83;;;20.20;56.90;;;;;;5019961;28;43872;-62
2022/06/04 10:37:24;;;;;;;2.00;1.88;;;20.30;56.90;;;;;;5007439;28;43450;-62
2022/06/04 10:39:59;;;;;;;2.20;2.10;;;20.30;56.90;;;;;;5007936;28;43471;-62
2022/06/04 10:43:10;;;;;;;2.22;2.08;;;20.20;56.90;;;;;;5021373;28;44120;-62
2022/06/04 10:45:45;;;;;;;1.90;1.80;;;20.30;56.90;;;;;;5004646;28;43538;-61
2022/06/04 10:48:36;;;;;;;1.98;1.88;;;20.30;56.90;;;;;;5018312;28;43429;-62
2022/06/04 10:51:36;;;;;;;2.00;1.90;;;20.30;56.80;;;;;;5013094;28;43506;-62
2022/06/04 10:54:31;;;;;;;2.20;2.00;;;20.30;56.90;;;;;;5015522;28;44775;-61
2022/06/04 10:57:27;;;;;;;2.20;2.10;;;20.30;56.90;;;;;;5017480;28;43699;-62
2022/06/04 11:00:18;;;;;;;2.42;2.20;;;20.30;56.90;;;;;;5011071;28;43501;-61
2022/06/04 11:03:02;;;;;;;2.85;2.05;;;20.30;56.80;;;;;;5011915;28;43457;-61
2022/06/04 11:06:06;;;;;;;3.08;2.60;;;20.40;57.00;;;;;;5020754;28;44689;-61
2022/06/04 11:08:48;;;;;;;2.35;2.05;;;20.40;57.00;;;;;;5005045;28;43553;-61
2022/06/04 11:11:32;;;;;;;2.42;2.10;;;20.40;57.60;;;;;;5019268;28;43424;-62
2022/06/04 11:14:13;;;;;;;2.15;2.05;;;20.50;57.00;;;;;;5034854;28;43495;-62
2022/06/04 11:16:46;;;;;;;2.00;1.90;;;20.50;57.00;;;;;;5011999;28;43791;-62
2022/06/04 11:19:20;;;;;;;2.55;2.20;;;20.50;57.00;;;;;;5014453;28;43721;-62
2022/06/04 11:21:56;;;;;;;2.28;1.92;;;20.50;57.00;;;;;;5020248;28;43533;-61
2022/06/04 11:24:29;;;;;;;2.10;2.00;;;20.50;56.90;;;;;;5018963;28;43540;-62
2022/06/04 11:27:21;;;;;;;2.33;2.10;;;20.50;56.90;;;;;;5008406;28;44060;-61
2022/06/04 11:29:52;;;;;;;2.65;2.30;;;20.60;56.90;;;;;;5011387;28;43502;-61
2022/06/04 11:32:43;;;;;;;2.05;1.95;;;20.60;56.80;;;;;;5020294;28;43490;-61
2022/06/04 11:35:23;;;;;;;2.22;2.03;;;20.60;56.80;;;;;;5020335;28;43644;-62
2022/06/04 11:38:29;;;;;;;2.42;2.22;;;20.60;56.90;;;;;;5009391;28;44030;-61
2022/06/04 11:41:05;;;;;;;2.20;2.10;;;20.60;56.80;;;;;;5016172;28;43447;-62
2022/06/04 11:43:49;;;;;;;2.25;2.08;;;20.60;56.80;;;;;;5021982;28;43432;-62
2022/06/04 11:46:23;;;;;;;2.10;2.00;;;20.70;56.70;;;;;;5010252;28;43432;-61
2022/06/04 11:49:13;;;;;;;2.03;1.92;;;20.70;56.70;;;;;;5014063;28;44030;-61
2022/06/04 11:51:57;;;;;;;2.13;1.77;;;20.70;56.70;;;;;;5003869;28;43438;-62
2022/06/04 11:54:43;;;;;;;2.65;2.20;;;20.70;56.80;;;;;;5011489;28;43499;-61
2022/06/04 11:57:48;;;;;;;2.83;2.30;;;20.70;56.80;;;;;;5012964;28;43468;-61
2022/06/04 12:00:31;;;;;;;2.15;2.05;;;20.70;56.80;;;;;;5020420;28;43794;-61
2022/06/04 12:03:11;;;;;;;2.63;2.15;;;20.70;56.80;;;;;;5009027;28;43487;-61
2022/06/04 12:05:42;;;;;;;3.13;1.98;;;20.70;56.80;;;;;;5016464;28;43506;-62
2022/06/04 12:08:17;;;;;;;2.30;2.10;;;20.80;56.80;;;;;;5022851;28;43462;-62
2022/06/04 12:11:14;;;;;;;2.28;2.08;;;20.80;56.80;;;;;;5018874;28;44998;-61
2022/06/04 12:13:48;;;;;;;2.03;1.88;;;20.90;56.80;;;;;;5018178;28;43722;-61
2022/06/04 12:16:33;;;;;;;2.13;1.90;;;20.90;56.80;;;;;;5015905;28;43426;-61
2022/06/04 12:25:13;;;;;;;2.10;2.00;;;20.90;56.90;;;;;;5013943;28;44089;-62
2022/06/04 12:28:40;;;;;;;2.00;1.90;;;21.00;56.90;;;;;;5020224;28;43463;-62
2022/06/04 12:31:08;;;;;;;2.25;1.90;;;21.00;56.90;;;;;;4991341;28;43524;-62
2022/06/04 12:33:40;;;;;;;2.42;2.10;;;21.00;56.80;;;;;;5016721;28;43787;-62
2022/06/04 12:36:22;;;;;;;2.20;2.10;;;21.00;56.80;;;;;;5016541;28;43419;-61
2022/06/04 12:38:59;;;;;;;2.28;2.10;;;21.00;56.80;;;;;;5015476;28;43435;-62
2022/06/04 12:41:54;;;;;;;2.38;2.17;;;21.00;56.80;;;;;;5014181;28;43569;-62
2022/06/04 12:44:23;;;;;;;2.30;2.10;;;21.00;56.80;;;;;;5017150;28;45016;-62
2022/06/04 12:46:53;;;;;;;2.10;2.00;;;21.00;56.80;;;;;;5024830;28;43471;-62
2022/06/04 12:49:37;;;;;;;2.20;2.10;;;21.00;56.90;;;;;;5024900;28;43459;-61
2022/06/04 12:52:26;;;;;;;2.40;2.20;;;21.00;56.90;;;;;;5013216;28;43507;-62
2022/06/04 12:55:07;;;;;;;1.98;1.80;;;21.10;56.70;;;;;;5021554;28;44690;-62
2022/06/04 12:57:51;;;;;;;2.03;1.90;;;21.10;56.60;;;;;;5017848;28;43761;-62
2022/06/04 13:00:22;;;;;;;2.00;1.90;;;21.10;56.70;;;;;;5011726;28;43506;-61
2022/06/04 13:03:07;;;;;;;2.10;1.92;;;21.10;56.70;;;;;;5021133;28;43558;-62
2022/06/04 13:06:12;;;;;;;2.50;2.25;;;21.10;56.60;;;;;;5021602;28;44730;-62
2022/06/04 13:08:51;;;;;;;2.40;2.20;;;21.10;56.60;;;;;;5019950;28;43913;-61
2022/06/04 13:11:40;;;;;;;2.17;2.00;;;21.10;56.60;;;;;;5016373;28;43523;-62
2022/06/04 13:14:40;;;;;;;2.20;2.10;;;21.20;56.70;;;;;;5015996;28;43614;-61
2022/06/04 13:17:33;;;;;;;2.13;1.98;;;21.20;56.60;;;;;;5014342;28;44058;-61
2022/06/04 13:20:10;;;;;;;2.15;2.00;;;21.20;56.60;;;;;;5017387;28;43426;-61
2022/06/04 13:22:51;;;;;;;2.25;1.92;;;21.20;56.60;;;;;;5022743;28;43446;-62
2022/06/04 13:25:36;;;;;;;2.17;1.95;;;21.20;56.50;;;;;;5008870;28;43640;-62
2022/06/04 13:28:03;;;;;;;2.00;1.90;;;21.30;56.60;;;;;;5011831;28;44658;-62
2022/06/04 13:30:34;;;;;;;2.00;1.90;;;21.40;56.60;;;;;;5019288;28;43409;-61
2022/06/04 13:33:11;;;;;;;2.13;2.00;;;21.40;56.60;;;;;;5021582;28;43463;-62
2022/06/04 13:35:45;;;;;;;2.10;1.90;;;21.50;56.60;;;;;;5018402;28;43526;-62
2022/06/04 13:38:42;;;;;;;2.20;2.00;;;21.50;56.60;;;;;;5015893;28;44003;-62
2022/06/04 13:44:39;;;;;;;2.30;2.10;;;21.60;56.50;;;;;;5017111;28;43497;-61
2022/06/04 13:47:29;;;;;;;2.00;1.90;;;21.60;56.40;;;;;;5012236;28;44063;-61
2022/06/04 13:50:16;;;;;;;1.75;1.65;;;21.60;56.40;;;;;;5017154;28;45710;-62
2022/06/04 13:52:56;;;;;;;1.90;1.80;;;21.70;56.40;;;;;;5022295;28;43713;-61